Oak Leaf, Texas
Current Conditions -  °F | °C
As of 3:35 PM on Friday 24 Oct 2014 (Local Time) from KJWY Reporting Station
Scattered Clouds Scattered Clouds  
Wind Chill: 83°   Ceiling: Unl
Heat Index: 83°   Visibility: 10mi
Dew Point: 62°   Wind: 6mph
Humidity: 49%   Direction: 190°S
Pressure: 30.1"   Gusts: NA
Location:  32.515°N, 96.8153°W
Report Text: KJWY 242035Z AUTO 19005KT 10SM SCT048 28/16 A3010 RMK AO2 T02810164
Loading
Personal Weather Stations






























Interactive Weather Map
Tropical Storm Tracking
New forecast layout! Learn more

10-Day Weather Forecast

Advertisements
Track Severe Weather on mobile